sensor_id;sensor_type;location;lat;lon;timestamp;temperature;humidity
4081;DHT22;2055;50.074;8.436;2023-10-31T00:01:17;11.90;99.90
4081;DHT22;2055;50.074;8.436;2023-10-31T00:03:42;11.80;99.90
4081;DHT22;2055;50.074;8.436;2023-10-31T00:06:10;11.80;99.90
4081;DHT22;2055;50.074;8.436;2023-10-31T00:08:35;11.70;99.90
4081;DHT22;2055;50.074;8.436;2023-10-31T00:11:00;11.80;99.90
4081;DHT22;2055;50.074;8.436;2023-10-31T00:13:26;11.80;99.90
4081;DHT22;2055;50.074;8.436;2023-10-31T00:15:52;11.70;99.90
4081;DHT22;2055;50.074;8.436;2023-10-31T00:18:17;11.60;99.90
4081;DHT22;2055;50.074;8.436;2023-10-31T00:20:43;11.60;99.90
4081;DHT22;2055;50.074;8.436;2023-10-31T00:23:08;11.80;99.90
4081;DHT22;2055;50.074;8.436;2023-10-31T00:25:34;11.50;99.90
4081;DHT22;2055;50.074;8.436;2023-10-31T00:27:59;11.60;99.90
4081;DHT22;2055;50.074;8.436;2023-10-31T00:30:25;11.50;99.90
4081;DHT22;2055;50.074;8.436;2023-10-31T00:32:50;11.60;99.90
4081;DHT22;2055;50.074;8.436;2023-10-31T00:35:16;11.60;99.90
4081;DHT22;2055;50.074;8.436;2023-10-31T00:37:41;11.60;99.90
4081;DHT22;2055;50.074;8.436;2023-10-31T00:40:07;11.60;99.90
4081;DHT22;2055;50.074;8.436;2023-10-31T00:42:39;11.60;99.90
4081;DHT22;2055;50.074;8.436;2023-10-31T00:45:08;11.60;99.90
4081;DHT22;2055;50.074;8.436;2023-10-31T00:47:34;11.60;99.90
4081;DHT22;2055;50.074;8.436;2023-10-31T00:49:59;11.60;99.90
4081;DHT22;2055;50.074;8.436;2023-10-31T00:52:25;11.70;99.90
4081;DHT22;2055;50.074;8.436;2023-10-31T00:54:51;11.60;99.90
4081;DHT22;2055;50.074;8.436;2023-10-31T00:57:16;11.60;99.90
4081;DHT22;2055;50.074;8.436;2023-10-31T00:59:42;11.60;99.90
4081;DHT22;2055;50.074;8.436;2023-10-31T01:02:08;11.60;99.90
4081;DHT22;2055;50.074;8.436;2023-10-31T01:04:33;11.60;99.90
4081;DHT22;2055;50.074;8.436;2023-10-31T01:07:00;11.50;99.90
4081;DHT22;2055;50.074;8.436;2023-10-31T01:09:26;11.50;99.90
4081;DHT22;2055;50.074;8.436;2023-10-31T01:11:51;11.50;99.90
4081;DHT22;2055;50.074;8.436;2023-10-31T01:14:17;11.50;99.90
4081;DHT22;2055;50.074;8.436;2023-10-31T01:16:42;11.60;99.90
4081;DHT22;2055;50.074;8.436;2023-10-31T01:19:08;11.40;99.90
4081;DHT22;2055;50.074;8.436;2023-10-31T01:21:33;11.30;99.90
4081;DHT22;2055;50.074;8.436;2023-10-31T01:23:59;11.20;99.90
4081;DHT22;2055;50.074;8.436;2023-10-31T01:26:25;11.10;99.90
4081;DHT22;2055;50.074;8.436;2023-10-31T01:28:51;11.00;99.90
4081;DHT22;2055;50.074;8.436;2023-10-31T01:31:17;11.10;99.90
4081;DHT22;2055;50.074;8.436;2023-10-31T01:33:42;11.00;99.90
4081;DHT22;2055;50.074;8.436;2023-10-31T01:36:08;11.10;99.90
4081;DHT22;2055;50.074;8.436;2023-10-31T01:38:36;11.10;99.90
4081;DHT22;2055;50.074;8.436;2023-10-31T01:41:01;11.20;99.90
4081;DHT22;2055;50.074;8.436;2023-10-31T01:43:34;11.20;99.90
4081;DHT22;2055;50.074;8.436;2023-10-31T01:46:00;11.20;99.90
4081;DHT22;2055;50.074;8.436;2023-10-31T01:48:28;11.20;99.90
4081;DHT22;2055;50.074;8.436;2023-10-31T01:50:54;11.20;99.90
4081;DHT22;2055;50.074;8.436;2023-10-31T01:53:21;11.20;99.90
4081;DHT22;2055;50.074;8.436;2023-10-31T01:55:47;11.10;99.90
4081;DHT22;2055;50.074;8.436;2023-10-31T01:58:13;11.10;99.90
4081;DHT22;2055;50.074;8.436;2023-10-31T02:00:43;11.10;99.90
4081;DHT22;2055;50.074;8.436;2023-10-31T02:03:09;11.00;99.90
4081;DHT22;2055;50.074;8.436;2023-10-31T02:05:35;11.10;99.90
4081;DHT22;2055;50.074;8.436;2023-10-31T02:08:05;11.00;99.90
4081;DHT22;2055;50.074;8.436;2023-10-31T02:10:33;11.00;99.90
4081;DHT22;2055;50.074;8.436;2023-10-31T02:15:38;10.90;99.90
4081;DHT22;2055;50.074;8.436;2023-10-31T02:18:03;10.90;99.90
4081;DHT22;2055;50.074;8.436;2023-10-31T02:20:29;10.90;99.90
4081;DHT22;2055;50.074;8.436;2023-10-31T02:22:55;10.90;99.90
4081;DHT22;2055;50.074;8.436;2023-10-31T02:25:20;10.80;99.90
4081;DHT22;2055;50.074;8.436;2023-10-31T02:27:46;10.80;99.90
4081;DHT22;2055;50.074;8.436;2023-10-31T02:30:12;10.80;99.90
4081;DHT22;2055;50.074;8.436;2023-10-31T02:32:38;10.80;99.90
4081;DHT22;2055;50.074;8.436;2023-10-31T02:35:03;10.80;99.90
4081;DHT22;2055;50.074;8.436;2023-10-31T02:37:29;10.60;99.90
4081;DHT22;2055;50.074;8.436;2023-10-31T02:39:55;10.80;99.90
4081;DHT22;2055;50.074;8.436;2023-10-31T02:42:20;10.80;99.90
4081;DHT22;2055;50.074;8.436;2023-10-31T02:44:46;10.60;99.90
4081;DHT22;2055;50.074;8.436;2023-10-31T02:47:12;10.70;99.90
4081;DHT22;2055;50.074;8.436;2023-10-31T02:49:37;10.80;99.90
4081;DHT22;2055;50.074;8.436;2023-10-31T02:52:03;10.70;99.90
4081;DHT22;2055;50.074;8.436;2023-10-31T02:54:28;10.80;99.90
4081;DHT22;2055;50.074;8.436;2023-10-31T02:56:54;10.50;99.90
4081;DHT22;2055;50.074;8.436;2023-10-31T02:59:20;10.40;99.90
4081;DHT22;2055;50.074;8.436;2023-10-31T03:01:45;10.20;99.90
4081;DHT22;2055;50.074;8.436;2023-10-31T03:04:11;10.20;99.90
4081;DHT22;2055;50.074;8.436;2023-10-31T03:06:36;10.30;99.90
4081;DHT22;2055;50.074;8.436;2023-10-31T03:09:02;10.30;99.90
4081;DHT22;2055;50.074;8.436;2023-10-31T03:11:28;10.30;99.90
4081;DHT22;2055;50.074;8.436;2023-10-31T03:13:53;10.30;99.90
4081;DHT22;2055;50.074;8.436;2023-10-31T03:16:19;10.30;99.90
4081;DHT22;2055;50.074;8.436;2023-10-31T03:18:48;10.20;99.90
4081;DHT22;2055;50.074;8.436;2023-10-31T03:21:13;10.10;99.90
4081;DHT22;2055;50.074;8.436;2023-10-31T03:23:41;10.00;99.90
4081;DHT22;2055;50.074;8.436;2023-10-31T03:26:06;9.90;99.90
4081;DHT22;2055;50.074;8.436;2023-10-31T03:28:32;9.90;99.90
4081;DHT22;2055;50.074;8.436;2023-10-31T03:30:57;9.80;99.90
4081;DHT22;2055;50.074;8.436;2023-10-31T03:33:23;9.80;99.90
4081;DHT22;2055;50.074;8.436;2023-10-31T03:35:49;9.90;99.90
4081;DHT22;2055;50.074;8.436;2023-10-31T03:38:15;9.90;99.90
4081;DHT22;2055;50.074;8.436;2023-10-31T03:40:40;10.00;99.90
4081;DHT22;2055;50.074;8.436;2023-10-31T03:43:06;10.00;99.90
4081;DHT22;2055;50.074;8.436;2023-10-31T03:45:32;10.00;99.90
4081;DHT22;2055;50.074;8.436;2023-10-31T03:47:57;10.00;99.90
4081;DHT22;2055;50.074;8.436;2023-10-31T03:50:23;10.10;99.90
4081;DHT22;2055;50.074;8.436;2023-10-31T03:52:49;10.10;99.90
4081;DHT22;2055;50.074;8.436;2023-10-31T03:55:14;10.10;99.90
4081;DHT22;2055;50.074;8.436;2023-10-31T03:57:40;10.10;99.90
4081;DHT22;2055;50.074;8.436;2023-10-31T04:00:06;10.10;99.90
4081;DHT22;2055;50.074;8.436;2023-10-31T04:02:32;10.10;99.90
4081;DHT22;2055;50.074;8.436;2023-10-31T04:04:58;10.10;99.90
4081;DHT22;2055;50.074;8.436;2023-10-31T04:07:23;10.50;99.90
4081;DHT22;2055;50.074;8.436;2023-10-31T04:09:49;10.20;99.90
4081;DHT22;2055;50.074;8.436;2023-10-31T04:12:15;10.20;99.90
4081;DHT22;2055;50.074;8.436;2023-10-31T04:14:41;10.30;99.90
4081;DHT22;2055;50.074;8.436;2023-10-31T04:17:06;10.30;99.90
4081;DHT22;2055;50.074;8.436;2023-10-31T04:19:32;10.30;99.90
4081;DHT22;2055;50.074;8.436;2023-10-31T04:21:57;10.30;99.90
4081;DHT22;2055;50.074;8.436;2023-10-31T04:24:23;10.30;99.90
4081;DHT22;2055;50.074;8.436;2023-10-31T04:26:49;10.30;99.90
4081;DHT22;2055;50.074;8.436;2023-10-31T04:29:14;10.30;99.90
4081;DHT22;2055;50.074;8.436;2023-10-31T04:31:39;10.30;99.90
4081;DHT22;2055;50.074;8.436;2023-10-31T04:34:05;10.40;99.90
4081;DHT22;2055;50.074;8.436;2023-10-31T04:36:30;10.40;99.90
4081;DHT22;2055;50.074;8.436;2023-10-31T04:38:56;10.30;99.90
4081;DHT22;2055;50.074;8.436;2023-10-31T04:41:22;10.30;99.90
4081;DHT22;2055;50.074;8.436;2023-10-31T04:43:47;10.30;99.90
4081;DHT22;2055;50.074;8.436;2023-10-31T04:46:13;10.30;99.90
4081;DHT22;2055;50.074;8.436;2023-10-31T04:48:39;10.30;99.90
4081;DHT22;2055;50.074;8.436;2023-10-31T04:51:04;10.30;99.90
4081;DHT22;2055;50.074;8.436;2023-10-31T04:53:30;10.30;99.90
4081;DHT22;2055;50.074;8.436;2023-10-31T04:55:58;10.40;99.90
4081;DHT22;2055;50.074;8.436;2023-10-31T04:58:23;10.40;99.90
4081;DHT22;2055;50.074;8.436;2023-10-31T05:00:49;10.50;99.90
4081;DHT22;2055;50.074;8.436;2023-10-31T05:03:14;10.50;99.90
4081;DHT22;2055;50.074;8.436;2023-10-31T05:05:40;10.50;99.90
4081;DHT22;2055;50.074;8.436;2023-10-31T05:08:06;10.60;99.90
4081;DHT22;2055;50.074;8.436;2023-10-31T05:10:31;10.60;99.90
4081;DHT22;2055;50.074;8.436;2023-10-31T05:12:57;10.60;99.90
4081;DHT22;2055;50.074;8.436;2023-10-31T05:15:22;10.70;99.90
4081;DHT22;2055;50.074;8.436;2023-10-31T05:17:48;10.70;99.90
4081;DHT22;2055;50.074;8.436;2023-10-31T05:20:13;10.70;99.90
4081;DHT22;2055;50.074;8.436;2023-10-31T05:22:40;10.70;99.90
4081;DHT22;2055;50.074;8.436;2023-10-31T05:25:06;10.60;99.90
4081;DHT22;2055;50.074;8.436;2023-10-31T05:27:32;10.60;99.90
4081;DHT22;2055;50.074;8.436;2023-10-31T05:29:57;10.60;99.90
4081;DHT22;2055;50.074;8.436;2023-10-31T05:32:23;10.60;99.90
4081;DHT22;2055;50.074;8.436;2023-10-31T05:34:48;10.60;99.90
4081;DHT22;2055;50.074;8.436;2023-10-31T05:37:14;10.60;99.90
4081;DHT22;2055;50.074;8.436;2023-10-31T05:39:40;10.60;99.90
4081;DHT22;2055;50.074;8.436;2023-10-31T05:42:05;10.60;99.90
4081;DHT22;2055;50.074;8.436;2023-10-31T05:44:31;10.60;99.90
4081;DHT22;2055;50.074;8.436;2023-10-31T05:46:56;10.60;99.90
4081;DHT22;2055;50.074;8.436;2023-10-31T05:49:22;10.60;99.90
4081;DHT22;2055;50.074;8.436;2023-10-31T05:51:51;10.60;99.90
4081;DHT22;2055;50.074;8.436;2023-10-31T05:54:17;10.60;99.90
4081;DHT22;2055;50.074;8.436;2023-10-31T05:56:43;10.50;99.90
4081;DHT22;2055;50.074;8.436;2023-10-31T05:59:08;10.50;99.90
4081;DHT22;2055;50.074;8.436;2023-10-31T06:01:34;10.60;99.90
4081;DHT22;2055;50.074;8.436;2023-10-31T06:03:59;10.50;99.90
4081;DHT22;2055;50.074;8.436;2023-10-31T06:06:25;10.50;99.90
4081;DHT22;2055;50.074;8.436;2023-10-31T06:08:50;10.50;99.90
4081;DHT22;2055;50.074;8.436;2023-10-31T06:11:16;10.50;99.90
4081;DHT22;2055;50.074;8.436;2023-10-31T06:13:42;10.50;99.90
4081;DHT22;2055;50.074;8.436;2023-10-31T06:16:07;10.50;99.90
4081;DHT22;2055;50.074;8.436;2023-10-31T06:18:33;10.50;99.90
4081;DHT22;2055;50.074;8.436;2023-10-31T06:21:00;10.50;99.90
4081;DHT22;2055;50.074;8.436;2023-10-31T06:23:25;10.60;99.90
4081;DHT22;2055;50.074;8.436;2023-10-31T06:25:51;10.60;99.90
4081;DHT22;2055;50.074;8.436;2023-10-31T06:28:16;10.90;99.90
4081;DHT22;2055;50.074;8.436;2023-10-31T06:30:42;10.60;99.90
4081;DHT22;2055;50.074;8.436;2023-10-31T06:33:07;10.60;99.90
4081;DHT22;2055;50.074;8.436;2023-10-31T06:35:34;10.60;99.90
4081;DHT22;2055;50.074;8.436;2023-10-31T06:38:00;10.60;99.90
4081;DHT22;2055;50.074;8.436;2023-10-31T06:40:26;10.60;99.90
4081;DHT22;2055;50.074;8.436;2023-10-31T06:42:52;10.60;99.90
4081;DHT22;2055;50.074;8.436;2023-10-31T06:45:17;10.60;99.90
4081;DHT22;2055;50.074;8.436;2023-10-31T06:47:43;10.60;99.90
4081;DHT22;2055;50.074;8.436;2023-10-31T06:50:09;10.70;99.90
4081;DHT22;2055;50.074;8.436;2023-10-31T06:52:35;10.60;99.90
4081;DHT22;2055;50.074;8.436;2023-10-31T06:55:00;10.60;99.90
4081;DHT22;2055;50.074;8.436;2023-10-31T06:57:26;10.60;99.90
4081;DHT22;2055;50.074;8.436;2023-10-31T06:59:51;10.60;99.90
4081;DHT22;2055;50.074;8.436;2023-10-31T07:02:17;10.60;99.90
4081;DHT22;2055;50.074;8.436;2023-10-31T07:04:43;10.60;99.90
4081;DHT22;2055;50.074;8.436;2023-10-31T07:07:08;10.60;99.90
4081;DHT22;2055;50.074;8.436;2023-10-31T07:09:34;10.60;99.90
4081;DHT22;2055;50.074;8.436;2023-10-31T07:12:00;10.70;99.90
4081;DHT22;2055;50.074;8.436;2023-10-31T07:14:25;10.60;99.90
4081;DHT22;2055;50.074;8.436;2023-10-31T07:16:51;10.60;99.90
4081;DHT22;2055;50.074;8.436;2023-10-31T07:19:16;10.70;99.90
4081;DHT22;2055;50.074;8.436;2023-10-31T07:21:42;10.70;99.90
4081;DHT22;2055;50.074;8.436;2023-10-31T07:24:08;10.70;99.90
4081;DHT22;2055;50.074;8.436;2023-10-31T07:26:35;10.90;99.90
4081;DHT22;2055;50.074;8.436;2023-10-31T07:29:01;10.70;99.90
4081;DHT22;2055;50.074;8.436;2023-10-31T07:31:26;10.70;99.90
4081;DHT22;2055;50.074;8.436;2023-10-31T07:33:52;10.60;99.90
4081;DHT22;2055;50.074;8.436;2023-10-31T07:36:17;10.70;99.90
4081;DHT22;2055;50.074;8.436;2023-10-31T07:38:43;10.70;99.90
4081;DHT22;2055;50.074;8.436;2023-10-31T07:41:08;10.60;99.90
4081;DHT22;2055;50.074;8.436;2023-10-31T07:43:34;10.60;99.90
4081;DHT22;2055;50.074;8.436;2023-10-31T07:46:00;10.60;99.90
4081;DHT22;2055;50.074;8.436;2023-10-31T07:48:25;10.60;99.90
4081;DHT22;2055;50.074;8.436;2023-10-31T07:50:51;10.70;99.90
4081;DHT22;2055;50.074;8.436;2023-10-31T07:53:16;10.70;99.90
4081;DHT22;2055;50.074;8.436;2023-10-31T07:55:42;10.80;99.90
4081;DHT22;2055;50.074;8.436;2023-10-31T07:58:08;10.80;99.90
4081;DHT22;2055;50.074;8.436;2023-10-31T08:00:35;10.80;99.90
4081;DHT22;2055;50.074;8.436;2023-10-31T08:03:01;10.90;99.90
4081;DHT22;2055;50.074;8.436;2023-10-31T08:05:27;11.00;99.90
4081;DHT22;2055;50.074;8.436;2023-10-31T08:07:52;11.10;99.90
4081;DHT22;2055;50.074;8.436;2023-10-31T08:10:18;11.10;99.90
4081;DHT22;2055;50.074;8.436;2023-10-31T08:12:43;11.20;99.90
4081;DHT22;2055;50.074;8.436;2023-10-31T08:15:09;11.20;99.90
4081;DHT22;2055;50.074;8.436;2023-10-31T08:17:35;11.20;99.90
4081;DHT22;2055;50.074;8.436;2023-10-31T08:20:01;11.20;99.90
4081;DHT22;2055;50.074;8.436;2023-10-31T08:22:29;11.20;99.90
4081;DHT22;2055;50.074;8.436;2023-10-31T08:24:55;11.20;99.90
4081;DHT22;2055;50.074;8.436;2023-10-31T08:27:21;11.30;99.90
4081;DHT22;2055;50.074;8.436;2023-10-31T08:29:46;11.30;99.90
4081;DHT22;2055;50.074;8.436;2023-10-31T08:32:12;11.40;99.90
4081;DHT22;2055;50.074;8.436;2023-10-31T08:34:38;11.50;99.90
4081;DHT22;2055;50.074;8.436;2023-10-31T08:37:03;11.50;99.90
4081;DHT22;2055;50.074;8.436;2023-10-31T08:39:29;11.60;99.90
4081;DHT22;2055;50.074;8.436;2023-10-31T08:41:56;11.60;99.90
4081;DHT22;2055;50.074;8.436;2023-10-31T08:44:22;11.70;99.90
4081;DHT22;2055;50.074;8.436;2023-10-31T08:46:47;11.70;99.90
4081;DHT22;2055;50.074;8.436;2023-10-31T08:49:14;11.60;99.90
4081;DHT22;2055;50.074;8.436;2023-10-31T08:51:41;11.70;99.90
4081;DHT22;2055;50.074;8.436;2023-10-31T08:54:06;11.80;99.90
4081;DHT22;2055;50.074;8.436;2023-10-31T08:56:32;11.90;99.90
4081;DHT22;2055;50.074;8.436;2023-10-31T08:58:58;11.90;99.90
4081;DHT22;2055;50.074;8.436;2023-10-31T09:01:23;12.00;99.90
4081;DHT22;2055;50.074;8.436;2023-10-31T09:03:49;12.00;99.90
4081;DHT22;2055;50.074;8.436;2023-10-31T09:06:14;12.00;99.90
4081;DHT22;2055;50.074;8.436;2023-10-31T09:08:40;11.90;99.90
4081;DHT22;2055;50.074;8.436;2023-10-31T09:11:06;12.00;99.90
4081;DHT22;2055;50.074;8.436;2023-10-31T09:13:32;12.20;99.90
4081;DHT22;2055;50.074;8.436;2023-10-31T09:15:58;12.30;99.90
4081;DHT22;2055;50.074;8.436;2023-10-31T09:18:24;12.30;99.90
4081;DHT22;2055;50.074;8.436;2023-10-31T09:20:50;12.20;99.90
4081;DHT22;2055;50.074;8.436;2023-10-31T09:23:15;12.20;99.90
4081;DHT22;2055;50.074;8.436;2023-10-31T09:25:45;12.20;99.90
4081;DHT22;2055;50.074;8.436;2023-10-31T09:28:11;12.40;99.90
4081;DHT22;2055;50.074;8.436;2023-10-31T09:30:37;12.40;99.90
4081;DHT22;2055;50.074;8.436;2023-10-31T09:33:02;12.20;99.90
4081;DHT22;2055;50.074;8.436;2023-10-31T09:35:28;12.30;99.90
4081;DHT22;2055;50.074;8.436;2023-10-31T09:37:54;12.30;99.90
4081;DHT22;2055;50.074;8.436;2023-10-31T09:40:21;12.30;99.90
4081;DHT22;2055;50.074;8.436;2023-10-31T09:42:47;12.30;99.90
4081;DHT22;2055;50.074;8.436;2023-10-31T09:45:13;12.40;99.90
4081;DHT22;2055;50.074;8.436;2023-10-31T09:47:39;12.50;99.90
4081;DHT22;2055;50.074;8.436;2023-10-31T09:50:06;12.40;99.90
4081;DHT22;2055;50.074;8.436;2023-10-31T09:52:33;12.60;99.90
4081;DHT22;2055;50.074;8.436;2023-10-31T09:55:01;12.60;99.90
4081;DHT22;2055;50.074;8.436;2023-10-31T09:57:28;12.60;99.90
4081;DHT22;2055;50.074;8.436;2023-10-31T09:59:53;12.40;99.90
4081;DHT22;2055;50.074;8.436;2023-10-31T10:02:19;12.70;99.90
4081;DHT22;2055;50.074;8.436;2023-10-31T10:04:44;12.50;99.90
4081;DHT22;2055;50.074;8.436;2023-10-31T10:07:15;12.70;99.90
4081;DHT22;2055;50.074;8.436;2023-10-31T10:09:42;12.50;99.90
4081;DHT22;2055;50.074;8.436;2023-10-31T10:12:12;12.80;99.90
4081;DHT22;2055;50.074;8.436;2023-10-31T10:14:38;12.90;99.90
4081;DHT22;2055;50.074;8.436;2023-10-31T10:17:20;13.10;99.90
4081;DHT22;2055;50.074;8.436;2023-10-31T10:19:46;13.20;99.90
4081;DHT22;2055;50.074;8.436;2023-10-31T10:22:12;13.30;99.90
4081;DHT22;2055;50.074;8.436;2023-10-31T10:24:40;13.70;99.90
4081;DHT22;2055;50.074;8.436;2023-10-31T10:27:09;13.80;99.90
4081;DHT22;2055;50.074;8.436;2023-10-31T10:29:37;14.70;99.90
4081;DHT22;2055;50.074;8.436;2023-10-31T10:32:06;15.30;99.90
4081;DHT22;2055;50.074;8.436;2023-10-31T10:34:33;16.80;99.90
4081;DHT22;2055;50.074;8.436;2023-10-31T10:36:59;17.50;99.90
4081;DHT22;2055;50.074;8.436;2023-10-31T10:39:24;17.50;99.90
4081;DHT22;2055;50.074;8.436;2023-10-31T10:41:53;16.50;99.90
4081;DHT22;2055;50.074;8.436;2023-10-31T10:44:27;16.30;99.90
4081;DHT22;2055;50.074;8.436;2023-10-31T10:46:56;17.00;99.90
4081;DHT22;2055;50.074;8.436;2023-10-31T10:49:24;16.40;99.90
4081;DHT22;2055;50.074;8.436;2023-10-31T10:51:53;17.20;99.90
4081;DHT22;2055;50.074;8.436;2023-10-31T10:57:14;19.40;99.90
4081;DHT22;2055;50.074;8.436;2023-10-31T10:59:43;17.90;99.90
4081;DHT22;2055;50.074;8.436;2023-10-31T11:02:11;17.30;99.90
4081;DHT22;2055;50.074;8.436;2023-10-31T11:04:38;16.10;99.90
4081;DHT22;2055;50.074;8.436;2023-10-31T11:07:05;16.10;99.90
4081;DHT22;2055;50.074;8.436;2023-10-31T11:09:31;16.70;99.90
4081;DHT22;2055;50.074;8.436;2023-10-31T11:11:57;17.20;99.90
4081;DHT22;2055;50.074;8.436;2023-10-31T11:14:25;16.60;99.90
4081;DHT22;2055;50.074;8.436;2023-10-31T11:16:53;17.70;99.90
4081;DHT22;2055;50.074;8.436;2023-10-31T11:19:20;17.80;99.90
4081;DHT22;2055;50.074;8.436;2023-10-31T11:22:00;17.50;99.90
4081;DHT22;2055;50.074;8.436;2023-10-31T11:24:31;15.50;99.90
4081;DHT22;2055;50.074;8.436;2023-10-31T11:27:05;15.00;99.90
4081;DHT22;2055;50.074;8.436;2023-10-31T11:29:32;16.00;99.90
4081;DHT22;2055;50.074;8.436;2023-10-31T11:31:57;16.10;99.90
4081;DHT22;2055;50.074;8.436;2023-10-31T11:34:26;15.60;99.90
4081;DHT22;2055;50.074;8.436;2023-10-31T11:36:52;16.00;99.90
4081;DHT22;2055;50.074;8.436;2023-10-31T11:39:21;15.10;99.90
4081;DHT22;2055;50.074;8.436;2023-10-31T11:41:56;17.30;99.90
4081;DHT22;2055;50.074;8.436;2023-10-31T11:44:27;16.60;99.90
4081;DHT22;2055;50.074;8.436;2023-10-31T11:46:53;16.80;99.90
4081;DHT22;2055;50.074;8.436;2023-10-31T11:49:47;15.90;99.90
4081;DHT22;2055;50.074;8.436;2023-10-31T11:52:16;17.30;99.90
4081;DHT22;2055;50.074;8.436;2023-10-31T11:54:43;15.50;99.90
4081;DHT22;2055;50.074;8.436;2023-10-31T11:57:09;14.70;99.90
4081;DHT22;2055;50.074;8.436;2023-10-31T11:59:39;14.10;99.90
4081;DHT22;2055;50.074;8.436;2023-10-31T12:02:14;15.70;99.90
4081;DHT22;2055;50.074;8.436;2023-10-31T12:04:40;15.40;99.90
4081;DHT22;2055;50.074;8.436;2023-10-31T12:07:05;15.30;99.90
4081;DHT22;2055;50.074;8.436;2023-10-31T12:09:31;14.50;99.90
4081;DHT22;2055;50.074;8.436;2023-10-31T12:11:57;14.30;99.90
4081;DHT22;2055;50.074;8.436;2023-10-31T12:14:22;14.40;99.90
4081;DHT22;2055;50.074;8.436;2023-10-31T12:16:48;14.10;99.90
4081;DHT22;2055;50.074;8.436;2023-10-31T12:19:13;13.80;99.90
4081;DHT22;2055;50.074;8.436;2023-10-31T12:21:43;13.70;99.90
4081;DHT22;2055;50.074;8.436;2023-10-31T12:24:10;13.60;99.90
4081;DHT22;2055;50.074;8.436;2023-10-31T12:26:37;13.70;99.90
4081;DHT22;2055;50.074;8.436;2023-10-31T12:29:16;13.70;99.90
4081;DHT22;2055;50.074;8.436;2023-10-31T12:31:46;13.80;99.90
4081;DHT22;2055;50.074;8.436;2023-10-31T12:34:12;13.70;99.90
4081;DHT22;2055;50.074;8.436;2023-10-31T12:36:39;13.70;99.90
4081;DHT22;2055;50.074;8.436;2023-10-31T12:39:07;13.80;99.90
4081;DHT22;2055;50.074;8.436;2023-10-31T12:41:34;14.00;99.90
4081;DHT22;2055;50.074;8.436;2023-10-31T12:44:00;14.00;99.90
4081;DHT22;2055;50.074;8.436;2023-10-31T12:48:52;14.20;99.90
4081;DHT22;2055;50.074;8.436;2023-10-31T12:51:18;14.50;99.90
4081;DHT22;2055;50.074;8.436;2023-10-31T12:53:49;14.30;99.90
4081;DHT22;2055;50.074;8.436;2023-10-31T12:56:37;14.20;99.90
4081;DHT22;2055;50.074;8.436;2023-10-31T12:59:08;14.10;99.90
4081;DHT22;2055;50.074;8.436;2023-10-31T13:01:42;14.00;99.90
4081;DHT22;2055;50.074;8.436;2023-10-31T13:04:08;13.90;99.90
4081;DHT22;2055;50.074;8.436;2023-10-31T13:06:35;13.90;99.90
4081;DHT22;2055;50.074;8.436;2023-10-31T13:09:01;13.90;99.90
4081;DHT22;2055;50.074;8.436;2023-10-31T13:11:31;14.00;99.90
4081;DHT22;2055;50.074;8.436;2023-10-31T13:13:57;14.30;99.90
4081;DHT22;2055;50.074;8.436;2023-10-31T13:16:23;14.30;99.90
4081;DHT22;2055;50.074;8.436;2023-10-31T13:18:49;14.40;99.90
4081;DHT22;2055;50.074;8.436;2023-10-31T13:21:15;14.40;99.90
4081;DHT22;2055;50.074;8.436;2023-10-31T13:23:41;14.50;99.90
4081;DHT22;2055;50.074;8.436;2023-10-31T13:26:11;14.50;99.90
4081;DHT22;2055;50.074;8.436;2023-10-31T13:28:37;14.40;99.90
4081;DHT22;2055;50.074;8.436;2023-10-31T13:31:04;14.60;99.90
4081;DHT22;2055;50.074;8.436;2023-10-31T13:33:30;16.40;99.90
4081;DHT22;2055;50.074;8.436;2023-10-31T13:35:55;17.60;99.90
4081;DHT22;2055;50.074;8.436;2023-10-31T13:38:21;17.80;99.90
4081;DHT22;2055;50.074;8.436;2023-10-31T13:40:46;17.40;99.90
4081;DHT22;2055;50.074;8.436;2023-10-31T13:43:12;15.80;99.90
4081;DHT22;2055;50.074;8.436;2023-10-31T13:45:37;15.60;99.90
4081;DHT22;2055;50.074;8.436;2023-10-31T13:48:03;16.00;99.90
4081;DHT22;2055;50.074;8.436;2023-10-31T13:50:29;16.80;99.90
4081;DHT22;2055;50.074;8.436;2023-10-31T13:52:55;17.70;99.90
4081;DHT22;2055;50.074;8.436;2023-10-31T13:55:21;18.10;99.90
4081;DHT22;2055;50.074;8.436;2023-10-31T13:57:46;17.50;99.90
4081;DHT22;2055;50.074;8.436;2023-10-31T14:00:12;17.50;99.90
4081;DHT22;2055;50.074;8.436;2023-10-31T14:02:39;17.50;99.90
4081;DHT22;2055;50.074;8.436;2023-10-31T14:05:04;17.60;99.90
4081;DHT22;2055;50.074;8.436;2023-10-31T14:07:30;17.70;99.90
4081;DHT22;2055;50.074;8.436;2023-10-31T14:09:55;17.30;99.90
4081;DHT22;2055;50.074;8.436;2023-10-31T14:12:23;16.60;99.90
4081;DHT22;2055;50.074;8.436;2023-10-31T14:14:48;16.80;99.90
4081;DHT22;2055;50.074;8.436;2023-10-31T14:17:15;16.80;99.90
4081;DHT22;2055;50.074;8.436;2023-10-31T14:19:42;16.60;99.90
4081;DHT22;2055;50.074;8.436;2023-10-31T14:22:08;16.90;99.90
4081;DHT22;2055;50.074;8.436;2023-10-31T14:24:33;16.90;99.90
4081;DHT22;2055;50.074;8.436;2023-10-31T14:27:00;17.60;99.90
4081;DHT22;2055;50.074;8.436;2023-10-31T14:29:26;16.70;99.90
4081;DHT22;2055;50.074;8.436;2023-10-31T14:31:52;17.10;99.90
4081;DHT22;2055;50.074;8.436;2023-10-31T14:34:19;16.20;99.90
4081;DHT22;2055;50.074;8.436;2023-10-31T14:36:46;15.80;99.90
4081;DHT22;2055;50.074;8.436;2023-10-31T14:39:11;15.40;99.90
4081;DHT22;2055;50.074;8.436;2023-10-31T14:41:37;14.70;99.90
4081;DHT22;2055;50.074;8.436;2023-10-31T14:44:03;14.40;99.90
4081;DHT22;2055;50.074;8.436;2023-10-31T14:46:29;14.10;99.90
4081;DHT22;2055;50.074;8.436;2023-10-31T14:48:55;14.00;99.90
4081;DHT22;2055;50.074;8.436;2023-10-31T14:51:21;13.90;99.90
4081;DHT22;2055;50.074;8.436;2023-10-31T14:53:46;13.80;99.90
4081;DHT22;2055;50.074;8.436;2023-10-31T14:56:12;13.60;99.90
4081;DHT22;2055;50.074;8.436;2023-10-31T14:58:38;13.50;99.90
4081;DHT22;2055;50.074;8.436;2023-10-31T15:01:04;13.40;99.90
4081;DHT22;2055;50.074;8.436;2023-10-31T15:03:30;13.40;99.90
4081;DHT22;2055;50.074;8.436;2023-10-31T15:05:58;13.40;99.90
4081;DHT22;2055;50.074;8.436;2023-10-31T15:08:24;13.30;99.90
4081;DHT22;2055;50.074;8.436;2023-10-31T15:10:52;13.40;99.90
4081;DHT22;2055;50.074;8.436;2023-10-31T15:13:18;13.40;99.90
4081;DHT22;2055;50.074;8.436;2023-10-31T15:15:44;13.40;99.90
4081;DHT22;2055;50.074;8.436;2023-10-31T15:18:09;13.50;99.90
4081;DHT22;2055;50.074;8.436;2023-10-31T15:20:35;13.40;99.90
4081;DHT22;2055;50.074;8.436;2023-10-31T15:23:00;13.30;99.90
4081;DHT22;2055;50.074;8.436;2023-10-31T15:25:26;13.30;99.90
4081;DHT22;2055;50.074;8.436;2023-10-31T15:27:52;13.20;99.90
4081;DHT22;2055;50.074;8.436;2023-10-31T15:30:17;13.10;99.90
4081;DHT22;2055;50.074;8.436;2023-10-31T15:32:43;13.10;99.90
4081;DHT22;2055;50.074;8.436;2023-10-31T15:35:08;13.00;99.90
4081;DHT22;2055;50.074;8.436;2023-10-31T15:37:35;13.00;99.90
4081;DHT22;2055;50.074;8.436;2023-10-31T15:40:01;12.90;99.90
4081;DHT22;2055;50.074;8.436;2023-10-31T15:42:26;12.60;99.90
4081;DHT22;2055;50.074;8.436;2023-10-31T15:44:53;12.80;99.90
4081;DHT22;2055;50.074;8.436;2023-10-31T15:47:21;12.70;99.90
4081;DHT22;2055;50.074;8.436;2023-10-31T15:49:47;12.70;99.90
4081;DHT22;2055;50.074;8.436;2023-10-31T15:52:12;12.70;99.90
4081;DHT22;2055;50.074;8.436;2023-10-31T15:54:38;12.60;99.90
4081;DHT22;2055;50.074;8.436;2023-10-31T15:57:03;12.60;99.90
4081;DHT22;2055;50.074;8.436;2023-10-31T15:59:29;12.60;99.90
4081;DHT22;2055;50.074;8.436;2023-10-31T16:01:55;12.60;99.90
4081;DHT22;2055;50.074;8.436;2023-10-31T16:04:20;12.50;99.90